sensor_id;sensor_type;location;lat;lon;timestamp;temperature;humidity
60848;DHT22;46681;47.696;9.140;2023-03-11T00:00:36;9.40;54.30
60848;DHT22;46681;47.696;9.140;2023-03-11T00:03:05;9.40;54.30
60848;DHT22;46681;47.696;9.140;2023-03-11T00:05:37;9.40;54.20
60848;DHT22;46681;47.696;9.140;2023-03-11T00:08:04;9.50;54.20
60848;DHT22;46681;47.696;9.140;2023-03-11T00:10:36;9.40;54.30
60848;DHT22;46681;47.696;9.140;2023-03-11T00:13:09;9.40;54.30
60848;DHT22;46681;47.696;9.140;2023-03-11T00:15:35;9.40;54.70
60848;DHT22;46681;47.696;9.140;2023-03-11T00:18:03;9.40;54.30
60848;DHT22;46681;47.696;9.140;2023-03-11T00:20:33;9.40;54.40
60848;DHT22;46681;47.696;9.140;2023-03-11T00:23:02;9.40;54.30
60848;DHT22;46681;47.696;9.140;2023-03-11T00:25:29;9.40;54.30
60848;DHT22;46681;47.696;9.140;2023-03-11T00:27:58;9.40;54.80
60848;DHT22;46681;47.696;9.140;2023-03-11T00:30:24;9.40;54.30
60848;DHT22;46681;47.696;9.140;2023-03-11T00:32:55;9.40;54.30
60848;DHT22;46681;47.696;9.140;2023-03-11T00:35:28;9.50;54.40
60848;DHT22;46681;47.696;9.140;2023-03-11T00:38:00;9.50;54.40
60848;DHT22;46681;47.696;9.140;2023-03-11T00:40:28;9.50;54.30
60848;DHT22;46681;47.696;9.140;2023-03-11T00:42:54;9.50;54.40
60848;DHT22;46681;47.696;9.140;2023-03-11T00:45:23;9.50;54.30
60848;DHT22;46681;47.696;9.140;2023-03-11T00:47:50;9.50;54.40
60848;DHT22;46681;47.696;9.140;2023-03-11T00:50:22;9.50;54.30
60848;DHT22;46681;47.696;9.140;2023-03-11T00:52:51;9.50;54.40
60848;DHT22;46681;47.696;9.140;2023-03-11T00:55:21;9.50;54.40
60848;DHT22;46681;47.696;9.140;2023-03-11T00:57:57;9.50;54.40
60848;DHT22;46681;47.696;9.140;2023-03-11T01:00:25;9.50;54.30
60848;DHT22;46681;47.696;9.140;2023-03-11T01:02:56;9.60;54.30
60848;DHT22;46681;47.696;9.140;2023-03-11T01:05:24;9.50;54.20
60848;DHT22;46681;47.696;9.140;2023-03-11T01:07:49;9.50;54.20
60848;DHT22;46681;47.696;9.140;2023-03-11T01:10:18;9.60;54.40
60848;DHT22;46681;47.696;9.140;2023-03-11T01:12:45;9.60;54.40
60848;DHT22;46681;47.696;9.140;2023-03-11T01:15:20;9.50;54.20
60848;DHT22;46681;47.696;9.140;2023-03-11T01:17:46;9.50;54.20
60848;DHT22;46681;47.696;9.140;2023-03-11T01:20:12;9.60;54.30
60848;DHT22;46681;47.696;9.140;2023-03-11T01:22:41;9.60;54.20
60848;DHT22;46681;47.696;9.140;2023-03-11T01:25:08;9.60;54.60
60848;DHT22;46681;47.696;9.140;2023-03-11T01:27:39;9.60;54.20
60848;DHT22;46681;47.696;9.140;2023-03-11T01:30:05;9.60;54.00
60848;DHT22;46681;47.696;9.140;2023-03-11T01:32:31;9.50;54.00
60848;DHT22;46681;47.696;9.140;2023-03-11T01:34:58;9.50;53.90
60848;DHT22;46681;47.696;9.140;2023-03-11T01:37:24;9.50;53.80
60848;DHT22;46681;47.696;9.140;2023-03-11T01:39:49;9.60;53.80
60848;DHT22;46681;47.696;9.140;2023-03-11T01:42:20;9.60;53.70
60848;DHT22;46681;47.696;9.140;2023-03-11T01:44:46;9.50;53.60
60848;DHT22;46681;47.696;9.140;2023-03-11T01:49:38;9.50;53.60
60848;DHT22;46681;47.696;9.140;2023-03-11T01:52:05;9.50;53.60
60848;DHT22;46681;47.696;9.140;2023-03-11T01:54:37;9.50;53.50
60848;DHT22;46681;47.696;9.140;2023-03-11T01:57:06;9.50;53.50
60848;DHT22;46681;47.696;9.140;2023-03-11T01:59:36;9.60;53.60
60848;DHT22;46681;47.696;9.140;2023-03-11T02:02:10;9.50;53.40
60848;DHT22;46681;47.696;9.140;2023-03-11T02:04:40;9.50;53.40
60848;DHT22;46681;47.696;9.140;2023-03-11T02:07:08;9.50;53.40
60848;DHT22;46681;47.696;9.140;2023-03-11T02:09:36;9.50;53.40
60848;DHT22;46681;47.696;9.140;2023-03-11T02:12:03;9.60;53.30
60848;DHT22;46681;47.696;9.140;2023-03-11T02:14:30;9.50;53.20
60848;DHT22;46681;47.696;9.140;2023-03-11T02:16:58;9.50;53.30
60848;DHT22;46681;47.696;9.140;2023-03-11T02:20:07;9.50;53.20
60848;DHT22;46681;47.696;9.140;2023-03-11T02:22:30;9.60;53.30
60848;DHT22;46681;47.696;9.140;2023-03-11T02:27:37;9.50;53.20
60848;DHT22;46681;47.696;9.140;2023-03-11T02:30:09;9.60;53.20
60848;DHT22;46681;47.696;9.140;2023-03-11T02:32:40;9.50;53.10
60848;DHT22;46681;47.696;9.140;2023-03-11T02:35:08;9.50;53.10
60848;DHT22;46681;47.696;9.140;2023-03-11T02:37:34;9.50;53.00
60848;DHT22;46681;47.696;9.140;2023-03-11T02:42:55;9.50;53.00
60848;DHT22;46681;47.696;9.140;2023-03-11T02:45:24;9.50;53.00
60848;DHT22;46681;47.696;9.140;2023-03-11T02:47:51;9.50;53.00
60848;DHT22;46681;47.696;9.140;2023-03-11T02:50:20;9.50;52.90
60848;DHT22;46681;47.696;9.140;2023-03-11T02:52:49;9.50;52.90
60848;DHT22;46681;47.696;9.140;2023-03-11T02:55:17;9.50;52.90
60848;DHT22;46681;47.696;9.140;2023-03-11T02:57:44;9.50;52.60
60848;DHT22;46681;47.696;9.140;2023-03-11T03:00:11;9.50;52.80
60848;DHT22;46681;47.696;9.140;2023-03-11T03:02:37;9.50;52.60
60848;DHT22;46681;47.696;9.140;2023-03-11T03:05:04;9.50;52.70
60848;DHT22;46681;47.696;9.140;2023-03-11T03:07:30;9.40;52.60
60848;DHT22;46681;47.696;9.140;2023-03-11T03:09:58;9.40;52.60
60848;DHT22;46681;47.696;9.140;2023-03-11T03:12:23;9.50;52.60
60848;DHT22;46681;47.696;9.140;2023-03-11T03:14:49;9.40;52.60
60848;DHT22;46681;47.696;9.140;2023-03-11T03:17:14;9.40;52.40
60848;DHT22;46681;47.696;9.140;2023-03-11T03:19:40;9.40;52.50
60848;DHT22;46681;47.696;9.140;2023-03-11T03:22:07;9.40;52.40
60848;DHT22;46681;47.696;9.140;2023-03-11T03:24:33;9.40;52.40
60848;DHT22;46681;47.696;9.140;2023-03-11T03:26:58;9.40;52.50
60848;DHT22;46681;47.696;9.140;2023-03-11T03:29:24;9.40;52.50
60848;DHT22;46681;47.696;9.140;2023-03-11T03:31:49;9.40;52.40
60848;DHT22;46681;47.696;9.140;2023-03-11T03:34:15;9.30;52.30
60848;DHT22;46681;47.696;9.140;2023-03-11T03:36:40;9.30;52.10
60848;DHT22;46681;47.696;9.140;2023-03-11T03:39:07;9.30;52.20
60848;DHT22;46681;47.696;9.140;2023-03-11T03:41:32;9.30;52.20
60848;DHT22;46681;47.696;9.140;2023-03-11T03:43:58;9.30;52.50
60848;DHT22;46681;47.696;9.140;2023-03-11T03:46:24;9.30;52.10
60848;DHT22;46681;47.696;9.140;2023-03-11T03:48:49;9.30;52.10
60848;DHT22;46681;47.696;9.140;2023-03-11T03:51:15;9.30;52.10
60848;DHT22;46681;47.696;9.140;2023-03-11T03:53:41;9.30;52.00
60848;DHT22;46681;47.696;9.140;2023-03-11T03:56:09;9.30;52.00
60848;DHT22;46681;47.696;9.140;2023-03-11T03:58:40;9.30;52.00
60848;DHT22;46681;47.696;9.140;2023-03-11T04:01:07;9.30;52.00
60848;DHT22;46681;47.696;9.140;2023-03-11T04:03:33;9.30;52.00
60848;DHT22;46681;47.696;9.140;2023-03-11T04:08:41;9.40;52.00
60848;DHT22;46681;47.696;9.140;2023-03-11T04:11:07;9.30;52.00
60848;DHT22;46681;47.696;9.140;2023-03-11T04:13:33;9.30;52.00
60848;DHT22;46681;47.696;9.140;2023-03-11T04:15:58;9.30;52.00
60848;DHT22;46681;47.696;9.140;2023-03-11T04:18:25;9.30;52.00
60848;DHT22;46681;47.696;9.140;2023-03-11T04:20:51;9.30;51.90
60848;DHT22;46681;47.696;9.140;2023-03-11T04:23:16;9.30;51.80
60848;DHT22;46681;47.696;9.140;2023-03-11T04:25:42;9.30;51.80
60848;DHT22;46681;47.696;9.140;2023-03-11T04:28:08;9.30;51.80
60848;DHT22;46681;47.696;9.140;2023-03-11T04:30:37;9.30;51.80
60848;DHT22;46681;47.696;9.140;2023-03-11T04:33:03;9.30;51.80
60848;DHT22;46681;47.696;9.140;2023-03-11T04:35:29;9.30;51.80
60848;DHT22;46681;47.696;9.140;2023-03-11T04:37:54;9.30;51.80
60848;DHT22;46681;47.696;9.140;2023-03-11T04:40:20;9.30;51.80
60848;DHT22;46681;47.696;9.140;2023-03-11T04:42:46;9.30;51.70
60848;DHT22;46681;47.696;9.140;2023-03-11T04:45:14;9.30;51.70
60848;DHT22;46681;47.696;9.140;2023-03-11T04:47:41;9.30;51.70
60848;DHT22;46681;47.696;9.140;2023-03-11T04:50:07;9.30;51.60
60848;DHT22;46681;47.696;9.140;2023-03-11T04:52:33;9.30;51.60
60848;DHT22;46681;47.696;9.140;2023-03-11T04:54:58;9.30;51.60
60848;DHT22;46681;47.696;9.140;2023-03-11T04:57:24;9.30;51.60
60848;DHT22;46681;47.696;9.140;2023-03-11T04:59:50;9.30;51.50
60848;DHT22;46681;47.696;9.140;2023-03-11T05:02:16;9.30;51.50
60848;DHT22;46681;47.696;9.140;2023-03-11T05:04:41;9.30;51.40
60848;DHT22;46681;47.696;9.140;2023-03-11T05:07:09;9.30;51.40
60848;DHT22;46681;47.696;9.140;2023-03-11T05:09:38;9.30;51.40
60848;DHT22;46681;47.696;9.140;2023-03-11T05:12:06;9.30;51.30
60848;DHT22;46681;47.696;9.140;2023-03-11T05:14:31;9.30;51.30
60848;DHT22;46681;47.696;9.140;2023-03-11T05:17:00;9.30;51.30
60848;DHT22;46681;47.696;9.140;2023-03-11T05:19:25;9.30;51.30
60848;DHT22;46681;47.696;9.140;2023-03-11T05:21:53;9.30;51.20
60848;DHT22;46681;47.696;9.140;2023-03-11T05:24:19;9.20;51.20
60848;DHT22;46681;47.696;9.140;2023-03-11T05:26:44;9.20;51.20
60848;DHT22;46681;47.696;9.140;2023-03-11T05:29:10;9.20;51.20
60848;DHT22;46681;47.696;9.140;2023-03-11T05:31:36;9.30;51.20
60848;DHT22;46681;47.696;9.140;2023-03-11T05:34:04;9.20;51.10
60848;DHT22;46681;47.696;9.140;2023-03-11T05:36:30;9.20;51.10
60848;DHT22;46681;47.696;9.140;2023-03-11T05:38:55;9.20;51.00
60848;DHT22;46681;47.696;9.140;2023-03-11T05:41:21;9.20;51.00
60848;DHT22;46681;47.696;9.140;2023-03-11T05:43:46;9.20;51.00
60848;DHT22;46681;47.696;9.140;2023-03-11T05:46:12;9.20;50.90
60848;DHT22;46681;47.696;9.140;2023-03-11T05:48:38;9.30;50.90
60848;DHT22;46681;47.696;9.140;2023-03-11T05:51:09;9.20;50.80
60848;DHT22;46681;47.696;9.140;2023-03-11T05:53:37;9.30;50.80
60848;DHT22;46681;47.696;9.140;2023-03-11T05:56:05;9.20;50.80
60848;DHT22;46681;47.696;9.140;2023-03-11T05:58:32;9.30;50.80
60848;DHT22;46681;47.696;9.140;2023-03-11T06:01:06;9.20;50.70
60848;DHT22;46681;47.696;9.140;2023-03-11T06:03:32;9.20;50.70
60848;DHT22;46681;47.696;9.140;2023-03-11T06:05:58;9.20;50.60
60848;DHT22;46681;47.696;9.140;2023-03-11T06:08:23;9.20;50.60
60848;DHT22;46681;47.696;9.140;2023-03-11T06:10:49;9.20;50.60
60848;DHT22;46681;47.696;9.140;2023-03-11T06:13:17;9.20;50.60
60848;DHT22;46681;47.696;9.140;2023-03-11T06:15:43;9.20;50.50
60848;DHT22;46681;47.696;9.140;2023-03-11T06:18:09;9.20;50.50
60848;DHT22;46681;47.696;9.140;2023-03-11T06:20:40;9.20;50.40
60848;DHT22;46681;47.696;9.140;2023-03-11T06:23:09;9.20;50.40
60848;DHT22;46681;47.696;9.140;2023-03-11T06:25:37;9.20;50.40
60848;DHT22;46681;47.696;9.140;2023-03-11T06:28:03;9.10;50.30
60848;DHT22;46681;47.696;9.140;2023-03-11T06:30:29;9.20;50.40
60848;DHT22;46681;47.696;9.140;2023-03-11T06:32:54;9.10;50.30
60848;DHT22;46681;47.696;9.140;2023-03-11T06:35:22;9.10;50.30
60848;DHT22;46681;47.696;9.140;2023-03-11T06:37:48;9.10;50.20
60848;DHT22;46681;47.696;9.140;2023-03-11T06:40:13;9.10;50.20
60848;DHT22;46681;47.696;9.140;2023-03-11T06:42:44;9.10;50.20
60848;DHT22;46681;47.696;9.140;2023-03-11T06:45:11;9.10;50.10
60848;DHT22;46681;47.696;9.140;2023-03-11T06:47:37;9.10;50.10
60848;DHT22;46681;47.696;9.140;2023-03-11T06:50:03;9.10;50.00
60848;DHT22;46681;47.696;9.140;2023-03-11T06:52:28;9.10;50.00
60848;DHT22;46681;47.696;9.140;2023-03-11T06:54:54;9.10;50.00
60848;DHT22;46681;47.696;9.140;2023-03-11T06:57:23;9.00;50.00
60848;DHT22;46681;47.696;9.140;2023-03-11T06:59:48;9.10;50.00
60848;DHT22;46681;47.696;9.140;2023-03-11T07:02:14;9.00;49.90
60848;DHT22;46681;47.696;9.140;2023-03-11T07:04:43;9.10;49.90
60848;DHT22;46681;47.696;9.140;2023-03-11T07:07:09;9.00;49.90
60848;DHT22;46681;47.696;9.140;2023-03-11T07:09:35;9.00;49.90
60848;DHT22;46681;47.696;9.140;2023-03-11T07:12:01;9.00;49.80
60848;DHT22;46681;47.696;9.140;2023-03-11T07:14:27;9.00;49.80
60848;DHT22;46681;47.696;9.140;2023-03-11T07:16:52;9.00;49.80
60848;DHT22;46681;47.696;9.140;2023-03-11T07:19:18;9.00;49.70
60848;DHT22;46681;47.696;9.140;2023-03-11T07:21:43;9.00;49.70
60848;DHT22;46681;47.696;9.140;2023-03-11T07:24:12;9.00;49.70
60848;DHT22;46681;47.696;9.140;2023-03-11T07:26:38;9.00;49.60
60848;DHT22;46681;47.696;9.140;2023-03-11T07:29:04;9.00;49.50
60848;DHT22;46681;47.696;9.140;2023-03-11T07:31:33;9.00;49.60
60848;DHT22;46681;47.696;9.140;2023-03-11T07:34:02;9.10;49.60
60848;DHT22;46681;47.696;9.140;2023-03-11T07:36:30;9.10;49.50
60848;DHT22;46681;47.696;9.140;2023-03-11T07:39:02;9.00;49.50
60848;DHT22;46681;47.696;9.140;2023-03-11T07:41:34;9.10;49.50
60848;DHT22;46681;47.696;9.140;2023-03-11T07:44:02;9.10;49.40
60848;DHT22;46681;47.696;9.140;2023-03-11T07:46:28;9.10;49.40
60848;DHT22;46681;47.696;9.140;2023-03-11T07:48:55;9.10;49.40
60848;DHT22;46681;47.696;9.140;2023-03-11T07:51:29;9.10;49.40
60848;DHT22;46681;47.696;9.140;2023-03-11T07:53:58;9.10;49.40
60848;DHT22;46681;47.696;9.140;2023-03-11T07:56:28;9.10;49.30
60848;DHT22;46681;47.696;9.140;2023-03-11T07:58:54;9.10;49.30
60848;DHT22;46681;47.696;9.140;2023-03-11T08:01:30;9.10;49.20
60848;DHT22;46681;47.696;9.140;2023-03-11T08:04:09;9.10;49.20
60848;DHT22;46681;47.696;9.140;2023-03-11T08:06:51;9.10;49.70
60848;DHT22;46681;47.696;9.140;2023-03-11T08:09:20;9.20;49.40
60848;DHT22;46681;47.696;9.140;2023-03-11T08:11:46;9.10;49.30
60848;DHT22;46681;47.696;9.140;2023-03-11T08:14:16;9.10;49.30
60848;DHT22;46681;47.696;9.140;2023-03-11T08:16:42;9.10;49.20
60848;DHT22;46681;47.696;9.140;2023-03-11T08:19:10;9.20;50.60
60848;DHT22;46681;47.696;9.140;2023-03-11T08:21:36;9.20;49.40
60848;DHT22;46681;47.696;9.140;2023-03-11T08:24:06;9.20;49.30
60848;DHT22;46681;47.696;9.140;2023-03-11T08:26:32;9.20;49.20
60848;DHT22;46681;47.696;9.140;2023-03-11T08:28:59;9.20;49.10
60848;DHT22;46681;47.696;9.140;2023-03-11T08:31:29;9.20;49.00
60848;DHT22;46681;47.696;9.140;2023-03-11T08:34:01;9.30;51.80
60848;DHT22;46681;47.696;9.140;2023-03-11T08:36:31;9.30;49.50
60848;DHT22;46681;47.696;9.140;2023-03-11T08:38:57;9.30;48.70
60848;DHT22;46681;47.696;9.140;2023-03-11T08:41:24;9.30;48.60
60848;DHT22;46681;47.696;9.140;2023-03-11T08:43:53;9.30;48.50
60848;DHT22;46681;47.696;9.140;2023-03-11T08:46:38;9.30;48.50
60848;DHT22;46681;47.696;9.140;2023-03-11T08:49:04;9.40;48.40
60848;DHT22;46681;47.696;9.140;2023-03-11T08:51:33;9.40;48.40
60848;DHT22;46681;47.696;9.140;2023-03-11T08:54:03;9.40;48.30
60848;DHT22;46681;47.696;9.140;2023-03-11T08:56:29;9.40;48.20
60848;DHT22;46681;47.696;9.140;2023-03-11T08:58:58;9.40;48.20
60848;DHT22;46681;47.696;9.140;2023-03-11T09:01:28;9.50;48.20
60848;DHT22;46681;47.696;9.140;2023-03-11T09:03:57;9.50;48.10
60848;DHT22;46681;47.696;9.140;2023-03-11T09:06:26;9.50;48.00
60848;DHT22;46681;47.696;9.140;2023-03-11T09:08:52;9.60;47.90
60848;DHT22;46681;47.696;9.140;2023-03-11T09:11:20;9.60;47.90
60848;DHT22;46681;47.696;9.140;2023-03-11T09:13:49;9.60;47.70
60848;DHT22;46681;47.696;9.140;2023-03-11T09:16:17;9.70;47.70
60848;DHT22;46681;47.696;9.140;2023-03-11T09:18:44;9.70;47.60
60848;DHT22;46681;47.696;9.140;2023-03-11T09:21:34;9.80;47.50
60848;DHT22;46681;47.696;9.140;2023-03-11T09:24:05;9.90;47.40
60848;DHT22;46681;47.696;9.140;2023-03-11T09:26:34;9.90;47.30
60848;DHT22;46681;47.696;9.140;2023-03-11T09:29:31;10.00;47.20
60848;DHT22;46681;47.696;9.140;2023-03-11T09:32:01;10.00;47.10
60848;DHT22;46681;47.696;9.140;2023-03-11T09:34:27;10.10;47.20
60848;DHT22;46681;47.696;9.140;2023-03-11T09:36:56;10.10;47.20
60848;DHT22;46681;47.696;9.140;2023-03-11T09:39:27;10.20;47.20
60848;DHT22;46681;47.696;9.140;2023-03-11T09:45:52;10.30;47.20
60848;DHT22;46681;47.696;9.140;2023-03-11T09:48:42;10.40;47.30
60848;DHT22;46681;47.696;9.140;2023-03-11T09:51:35;10.40;47.10
60848;DHT22;46681;47.696;9.140;2023-03-11T09:54:11;10.60;48.10
60848;DHT22;46681;47.696;9.140;2023-03-11T09:56:41;10.70;47.20
60848;DHT22;46681;47.696;9.140;2023-03-11T09:59:18;10.70;47.00
60848;DHT22;46681;47.696;9.140;2023-03-11T10:02:02;10.90;48.60
60848;DHT22;46681;47.696;9.140;2023-03-11T10:05:00;11.00;48.10
60848;DHT22;46681;47.696;9.140;2023-03-11T10:07:39;11.10;47.50
60848;DHT22;46681;47.696;9.140;2023-03-11T10:10:07;11.10;46.90
60848;DHT22;46681;47.696;9.140;2023-03-11T10:12:58;11.30;46.10
60848;DHT22;46681;47.696;9.140;2023-03-11T10:21:59;11.90;42.50
60848;DHT22;46681;47.696;9.140;2023-03-11T10:24:49;12.00;43.10
60848;DHT22;46681;47.696;9.140;2023-03-11T10:30:38;12.10;42.60
60848;DHT22;46681;47.696;9.140;2023-03-11T10:35:47;12.60;42.90
60848;DHT22;46681;47.696;9.140;2023-03-11T10:38:32;12.80;43.20
60848;DHT22;46681;47.696;9.140;2023-03-11T10:41:12;13.20;43.20
60848;DHT22;46681;47.696;9.140;2023-03-11T10:44:02;13.50;43.30
60848;DHT22;46681;47.696;9.140;2023-03-11T10:46:30;14.00;42.50
60848;DHT22;46681;47.696;9.140;2023-03-11T10:49:01;14.20;42.40
60848;DHT22;46681;47.696;9.140;2023-03-11T10:51:34;14.50;42.20
60848;DHT22;46681;47.696;9.140;2023-03-11T10:54:02;14.80;41.60
60848;DHT22;46681;47.696;9.140;2023-03-11T10:56:41;15.00;41.50
60848;DHT22;46681;47.696;9.140;2023-03-11T11:02:18;15.50;41.10
60848;DHT22;46681;47.696;9.140;2023-03-11T11:05:46;15.70;40.90
60848;DHT22;46681;47.696;9.140;2023-03-11T11:08:01;16.00;40.80
60848;DHT22;46681;47.696;9.140;2023-03-11T11:10:31;16.30;40.40
60848;DHT22;46681;47.696;9.140;2023-03-11T11:18:59;16.70;39.90
60848;DHT22;46681;47.696;9.140;2023-03-11T11:21:32;16.70;39.90
60848;DHT22;46681;47.696;9.140;2023-03-11T11:24:17;16.80;40.00
60848;DHT22;46681;47.696;9.140;2023-03-11T11:32:35;17.00;39.80
60848;DHT22;46681;47.696;9.140;2023-03-11T11:35:15;17.10;39.80
60848;DHT22;46681;47.696;9.140;2023-03-11T11:37:47;17.10;39.80
60848;DHT22;46681;47.696;9.140;2023-03-11T11:42:58;17.40;39.70
60848;DHT22;46681;47.696;9.140;2023-03-11T11:55:02;17.00;38.50
60848;DHT22;46681;47.696;9.140;2023-03-11T11:57:43;17.00;39.70
60848;DHT22;46681;47.696;9.140;2023-03-11T12:03:20;15.90;35.90
60848;DHT22;46681;47.696;9.140;2023-03-11T12:11:46;17.20;36.80
60848;DHT22;46681;47.696;9.140;2023-03-11T12:14:41;17.20;37.00
60848;DHT22;46681;47.696;9.140;2023-03-11T12:17:04;17.40;37.50
60848;DHT22;46681;47.696;9.140;2023-03-11T12:19:47;17.80;37.60
60848;DHT22;46681;47.696;9.140;2023-03-11T12:31:08;18.80;37.20
60848;DHT22;46681;47.696;9.140;2023-03-11T12:36:28;18.60;37.40
60848;DHT22;46681;47.696;9.140;2023-03-11T12:39:06;18.50;37.70
60848;DHT22;46681;47.696;9.140;2023-03-11T12:41:43;18.30;37.90
60848;DHT22;46681;47.696;9.140;2023-03-11T12:49:28;17.70;36.80
60848;DHT22;46681;47.696;9.140;2023-03-11T13:08:24;16.70;38.20
60848;DHT22;46681;47.696;9.140;2023-03-11T13:10:56;16.50;37.60
60848;DHT22;46681;47.696;9.140;2023-03-11T13:16:45;16.60;38.10
60848;DHT22;46681;47.696;9.140;2023-03-11T13:18:48;16.70;37.70
60848;DHT22;46681;47.696;9.140;2023-03-11T13:29:59;16.60;37.40
60848;DHT22;46681;47.696;9.140;2023-03-11T13:36:13;16.70;37.50
60848;DHT22;46681;47.696;9.140;2023-03-11T13:41:17;16.20;36.60
60848;DHT22;46681;47.696;9.140;2023-03-11T13:43:49;16.20;36.90
60848;DHT22;46681;47.696;9.140;2023-03-11T13:46:34;16.30;37.20
60848;DHT22;46681;47.696;9.140;2023-03-11T13:51:58;16.40;36.90
60848;DHT22;46681;47.696;9.140;2023-03-11T13:54:55;16.60;37.40
60848;DHT22;46681;47.696;9.140;2023-03-11T13:57:34;16.80;37.60
60848;DHT22;46681;47.696;9.140;2023-03-11T14:00:16;16.90;38.10
60848;DHT22;46681;47.696;9.140;2023-03-11T14:05:39;16.80;36.80
60848;DHT22;46681;47.696;9.140;2023-03-11T14:08:26;16.90;37.10
60848;DHT22;46681;47.696;9.140;2023-03-11T14:13:32;17.00;37.40
60848;DHT22;46681;47.696;9.140;2023-03-11T14:18:46;17.00;37.10
60848;DHT22;46681;47.696;9.140;2023-03-11T14:21:48;17.10;37.60
60848;DHT22;46681;47.696;9.140;2023-03-11T14:24:34;17.10;36.80
60848;DHT22;46681;47.696;9.140;2023-03-11T14:27:12;17.10;37.00
60848;DHT22;46681;47.696;9.140;2023-03-11T14:29:41;17.10;37.00
60848;DHT22;46681;47.696;9.140;2023-03-11T14:32:31;17.00;37.00
60848;DHT22;46681;47.696;9.140;2023-03-11T14:34:57;17.00;36.70
60848;DHT22;46681;47.696;9.140;2023-03-11T14:37:26;17.00;36.90
60848;DHT22;46681;47.696;9.140;2023-03-11T14:40:00;16.80;36.80
60848;DHT22;46681;47.696;9.140;2023-03-11T14:42:43;16.90;36.90
60848;DHT22;46681;47.696;9.140;2023-03-11T14:45:17;16.70;37.10
60848;DHT22;46681;47.696;9.140;2023-03-11T14:50:31;16.50;37.80
60848;DHT22;46681;47.696;9.140;2023-03-11T14:53:23;16.30;38.20
60848;DHT22;46681;47.696;9.140;2023-03-11T14:55:57;16.20;38.40
60848;DHT22;46681;47.696;9.140;2023-03-11T14:58:41;16.10;38.70
60848;DHT22;46681;47.696;9.140;2023-03-11T15:04:09;15.80;39.30
60848;DHT22;46681;47.696;9.140;2023-03-11T15:06:40;15.70;39.40
60848;DHT22;46681;47.696;9.140;2023-03-11T15:11:51;15.50;40.10
60848;DHT22;46681;47.696;9.140;2023-03-11T15:16:55;15.40;40.60
60848;DHT22;46681;47.696;9.140;2023-03-11T15:19:39;15.30;40.40
60848;DHT22;46681;47.696;9.140;2023-03-11T15:22:29;15.20;40.50
60848;DHT22;46681;47.696;9.140;2023-03-11T15:24:59;15.20;40.70
60848;DHT22;46681;47.696;9.140;2023-03-11T15:27:39;15.10;40.80
60848;DHT22;46681;47.696;9.140;2023-03-11T15:30:29;15.10;40.90
60848;DHT22;46681;47.696;9.140;2023-03-11T15:32:56;15.00;40.70
60848;DHT22;46681;47.696;9.140;2023-03-11T15:35:25;14.90;41.30
60848;DHT22;46681;47.696;9.140;2023-03-11T15:40:54;14.80;41.20
60848;DHT22;46681;47.696;9.140;2023-03-11T15:43:28;14.70;41.10
60848;DHT22;46681;47.696;9.140;2023-03-11T15:45:59;14.70;41.70
60848;DHT22;46681;47.696;9.140;2023-03-11T15:48:26;14.60;41.30
60848;DHT22;46681;47.696;9.140;2023-03-11T15:50:57;14.50;41.70
60848;DHT22;46681;47.696;9.140;2023-03-11T15:53:27;14.50;41.80
60848;DHT22;46681;47.696;9.140;2023-03-11T15:55:57;14.40;41.60
60848;DHT22;46681;47.696;9.140;2023-03-11T15:58:31;14.30;42.00
60848;DHT22;46681;47.696;9.140;2023-03-11T16:01:09;14.20;42.00
60848;DHT22;46681;47.696;9.140;2023-03-11T16:03:41;14.20;42.10
60848;DHT22;46681;47.696;9.140;2023-03-11T16:06:07;14.10;42.20
60848;DHT22;46681;47.696;9.140;2023-03-11T16:08:34;14.00;42.30
60848;DHT22;46681;47.696;9.140;2023-03-11T16:11:01;13.90;42.50
60848;DHT22;46681;47.696;9.140;2023-03-11T16:13:28;13.90;42.60
60848;DHT22;46681;47.696;9.140;2023-03-11T16:15:56;13.80;42.80
60848;DHT22;46681;47.696;9.140;2023-03-11T16:18:22;13.80;42.60
60848;DHT22;46681;47.696;9.140;2023-03-11T16:21:01;13.70;42.90
60848;DHT22;46681;47.696;9.140;2023-03-11T16:23:30;13.70;42.90
60848;DHT22;46681;47.696;9.140;2023-03-11T16:26:02;13.60;43.00
60848;DHT22;46681;47.696;9.140;2023-03-11T16:28:33;13.60;43.10
60848;DHT22;46681;47.696;9.140;2023-03-11T16:30:59;13.50;43.00
60848;DHT22;46681;47.696;9.140;2023-03-11T16:33:34;13.40;43.10
60848;DHT22;46681;47.696;9.140;2023-03-11T16:36:09;13.30;43.10
60848;DHT22;46681;47.696;9.140;2023-03-11T16:38:46;13.20;42.60
60848;DHT22;46681;47.696;9.140;2023-03-11T16:41:12;13.00;42.40
60848;DHT22;46681;47.696;9.140;2023-03-11T16:43:41;12.90;42.60
60848;DHT22;46681;47.696;9.140;2023-03-11T16:46:10;12.70;43.80
60848;DHT22;46681;47.696;9.140;2023-03-11T16:48:36;12.60;44.00
60848;DHT22;46681;47.696;9.140;2023-03-11T16:51:03;12.50;43.90
60848;DHT22;46681;47.696;9.140;2023-03-11T16:53:34;12.40;43.90
60848;DHT22;46681;47.696;9.140;2023-03-11T16:55:59;12.40;44.80
60848;DHT22;46681;47.696;9.140;2023-03-11T16:58:29;12.40;45.50
60848;DHT22;46681;47.696;9.140;2023-03-11T17:00:56;12.40;45.90
60848;DHT22;46681;47.696;9.140;2023-03-11T17:03:22;12.30;46.30
60848;DHT22;46681;47.696;9.140;2023-03-11T17:05:49;12.30;46.80
60848;DHT22;46681;47.696;9.140;2023-03-11T17:08:16;12.30;47.30
60848;DHT22;46681;47.696;9.140;2023-03-11T17:10:44;12.20;47.80
60848;DHT22;46681;47.696;9.140;2023-03-11T17:13:20;12.20;48.00
60848;DHT22;46681;47.696;9.140;2023-03-11T17:15:59;12.10;48.40
60848;DHT22;46681;47.696;9.140;2023-03-11T17:18:26;12.10;49.10
60848;DHT22;46681;47.696;9.140;2023-03-11T17:21:09;12.10;49.40
60848;DHT22;46681;47.696;9.140;2023-03-11T17:23:42;12.10;50.40
60848;DHT22;46681;47.696;9.140;2023-03-11T17:26:14;12.00;52.20
60848;DHT22;46681;47.696;9.140;2023-03-11T17:28:44;12.00;51.10
60848;DHT22;46681;47.696;9.140;2023-03-11T17:31:16;12.00;51.10
60848;DHT22;46681;47.696;9.140;2023-03-11T17:33:44;11.90;51.00
60848;DHT22;46681;47.696;9.140;2023-03-11T17:36:17;11.90;51.40
60848;DHT22;46681;47.696;9.140;2023-03-11T17:38:49;11.80;51.60
60848;DHT22;46681;47.696;9.140;2023-03-11T17:41:20;11.80;52.80
60848;DHT22;46681;47.696;9.140;2023-03-11T17:43:49;11.80;52.70
60848;DHT22;46681;47.696;9.140;2023-03-11T17:46:18;11.70;52.60
60848;DHT22;46681;47.696;9.140;2023-03-11T17:48:48;11.70;53.00
60848;DHT22;46681;47.696;9.140;2023-03-11T17:51:19;11.70;53.10
60848;DHT22;46681;47.696;9.140;2023-03-11T17:53:51;11.60;53.40
60848;DHT22;46681;47.696;9.140;2023-03-11T17:56:23;11.60;53.90
60848;DHT22;46681;47.696;9.140;2023-03-11T17:58:51;11.50;54.20
60848;DHT22;46681;47.696;9.140;2023-03-11T18:01:29;11.50;54.20
60848;DHT22;46681;47.696;9.140;2023-03-11T18:03:57;11.40;54.30
60848;DHT22;46681;47.696;9.140;2023-03-11T18:06:32;11.40;54.80
60848;DHT22;46681;47.696;9.140;2023-03-11T18:08:58;11.40;54.90
60848;DHT22;46681;47.696;9.140;2023-03-11T18:11:30;11.40;55.20
60848;DHT22;46681;47.696;9.140;2023-03-11T18:13:58;11.40;55.40
60848;DHT22;46681;47.696;9.140;2023-03-11T18:16:29;11.30;55.50
60848;DHT22;46681;47.696;9.140;2023-03-11T18:19:01;11.30;55.50